Time;durP1;ratioP1;P1;durP2;ratioP2;P2;SDS_P1;SDS_P2;PMS_P1;PMS_P2;Temp;Humidity;BMP_temperature;BMP_pressure;BME280_temperature;BME280_humidity;BME280_pressure;Samples;Min_cycle;Max_cycle;Signal;HPM_P1;HPM_P2
2021/08/14 00:00:56;;;;;;;4.65;2.58;;;;;;;16.93;100.00;101391.13;5033977;28;20220;-77
2021/08/14 00:03:24;;;;;;;5.63;2.55;;;;;;;16.89;100.00;101395.59;5033906;28;20177;-80
2021/08/14 00:05:51;;;;;;;4.85;2.45;;;;;;;16.87;100.00;101386.84;5069642;28;20239;-78
2021/08/14 00:08:19;;;;;;;5.00;2.67;;;;;;;16.88;100.00;101382.16;5036459;28;20186;-78
2021/08/14 00:10:45;;;;;;;4.43;2.60;;;;;;;16.84;100.00;101397.59;5020482;28;20622;-79
2021/08/14 00:13:13;;;;;;;3.97;2.45;;;;;;;16.82;100.00;101397.06;5054984;28;20187;-79
2021/08/14 00:15:41;;;;;;;6.80;2.58;;;;;;;16.71;100.00;101398.31;5036880;28;20222;-79
2021/08/14 00:18:09;;;;;;;6.75;2.42;;;;;;;16.50;100.00;101391.44;5020763;28;20172;-78
2021/08/14 00:20:37;;;;;;;5.65;2.60;;;;;;;16.30;100.00;101390.84;5036647;28;20231;-81
2021/08/14 00:23:03;;;;;;;6.97;3.17;;;;;;;16.32;100.00;101391.41;5043281;28;20597;-80
2021/08/14 00:25:29;;;;;;;4.30;2.25;;;;;;;16.15;100.00;101387.44;5022722;28;20221;-80
2021/08/14 00:27:54;;;;;;;4.60;2.70;;;;;;;16.25;100.00;101394.47;5022398;28;20608;-81
2021/08/14 00:30:20;;;;;;;5.65;2.60;;;;;;;16.33;100.00;101393.00;5034780;28;20198;-79
2021/08/14 00:32:45;;;;;;;4.97;2.40;;;;;;;16.28;100.00;101393.06;5032062;28;20199;-78
2021/08/14 00:35:11;;;;;;;8.32;2.50;;;;;;;16.37;100.00;101385.84;5030097;28;20207;-77
2021/08/14 00:37:39;;;;;;;3.83;2.88;;;;;;;16.49;100.00;101383.50;5027515;28;20185;-78
2021/08/14 00:40:05;;;;;;;5.57;2.83;;;;;;;16.60;100.00;101397.59;5060754;28;20222;-80
2021/08/14 00:42:37;;;;;;;4.47;2.42;;;;;;;16.56;100.00;101389.47;5044536;28;20237;-79
2021/08/14 00:45:11;;;;;;;6.63;2.83;;;;;;;16.57;100.00;101391.88;5045430;28;20176;-78
2021/08/14 00:47:44;;;;;;;7.00;3.00;;;;;;;16.76;100.00;101401.81;5020847;28;20726;-81
2021/08/14 00:50:11;;;;;;;6.55;3.00;;;;;;;16.52;100.00;101396.63;5034108;28;20705;-79
2021/08/14 00:52:41;;;;;;;6.55;2.63;;;;;;;16.59;100.00;101390.50;5052298;28;20262;-81
2021/08/14 00:55:09;;;;;;;4.50;2.58;;;;;;;16.62;100.00;101389.91;5037875;28;20192;-79
2021/08/14 00:57:35;;;;;;;6.40;2.58;;;;;;;16.48;100.00;101390.91;5041190;28;20669;-79
2021/08/14 01:00:03;;;;;;;7.53;2.67;;;;;;;16.36;100.00;101384.22;5049603;28;20549;-80
2021/08/14 01:02:31;;;;;;;5.25;2.72;;;;;;;16.37;100.00;101391.31;5013763;28;20241;-80
2021/08/14 01:04:56;;;;;;;7.78;2.60;;;;;;;16.48;100.00;101382.66;4997135;28;20177;-80
2021/08/14 01:07:24;;;;;;;5.10;2.65;;;;;;;16.58;100.00;101379.81;4989071;28;20212;-80
2021/08/14 01:09:54;;;;;;;6.38;2.70;;;;;;;16.23;100.00;101379.44;5016062;28;20230;-81
2021/08/14 01:12:25;;;;;;;6.07;2.97;;;;;;;16.28;100.00;101387.56;5028628;28;20600;-80
2021/08/14 01:14:50;;;;;;;7.32;3.33;;;;;;;16.18;100.00;101383.03;4980687;28;20678;-80
2021/08/14 01:17:19;;;;;;;4.63;3.17;;;;;;;16.18;100.00;101382.22;4999411;28;20220;-79
2021/08/14 01:19:46;;;;;;;7.03;3.20;;;;;;;16.34;100.00;101383.69;5049090;28;20223;-80
2021/08/14 01:22:14;;;;;;;4.93;2.72;;;;;;;16.30;100.00;101374.38;4994049;28;20212;-79
2021/08/14 01:24:43;;;;;;;5.85;2.90;;;;;;;16.17;100.00;101381.38;5001324;28;20184;-80
2021/08/14 01:27:11;;;;;;;4.32;2.90;;;;;;;16.32;100.00;101388.66;5011618;28;20216;-80
2021/08/14 01:29:37;;;;;;;5.95;3.08;;;;;;;16.24;100.00;101378.31;5033382;28;20177;-79
2021/08/14 01:32:09;;;;;;;6.93;3.33;;;;;;;16.17;100.00;101380.53;4983488;28;20710;-80
2021/08/14 01:34:41;;;;;;;4.95;2.90;;;;;;;16.28;100.00;101379.34;5016405;28;20219;-80
2021/08/14 01:37:07;;;;;;;4.97;3.17;;;;;;;16.24;100.00;101383.78;5016181;28;20600;-79
2021/08/14 01:39:33;;;;;;;7.60;3.20;;;;;;;16.08;100.00;101382.31;5018777;28;20646;-80
2021/08/14 01:42:00;;;;;;;6.63;3.20;;;;;;;16.08;100.00;101376.00;5002707;28;20239;-79
2021/08/14 01:44:28;;;;;;;7.30;3.05;;;;;;;16.17;100.00;101386.03;4999615;28;20189;-80
2021/08/14 01:46:54;;;;;;;7.20;3.63;;;;;;;16.14;100.00;101383.06;4982388;28;20371;-78
2021/08/14 01:49:20;;;;;;;6.60;3.15;;;;;;;16.25;100.00;101385.44;4999090;28;20202;-80
2021/08/14 01:51:48;;;;;;;6.72;3.42;;;;;;;16.21;100.00;101379.72;5036355;28;20289;-80
2021/08/14 01:54:13;;;;;;;6.40;3.45;;;;;;;16.03;100.00;101374.13;5034050;28;20191;-80
2021/08/14 01:56:44;;;;;;;7.25;3.42;;;;;;;15.87;100.00;101372.63;5046302;28;20596;-80
2021/08/14 01:59:10;;;;;;;5.40;3.20;;;;;;;15.87;100.00;101363.63;5007462;28;20869;-78
2021/08/14 02:01:37;;;;;;;5.53;3.10;;;;;;;15.80;100.00;101369.44;5002699;28;20655;-78
2021/08/14 02:04:06;;;;;;;7.63;3.35;;;;;;;15.84;100.00;101365.03;5035248;28;20180;-80
2021/08/14 02:06:31;;;;;;;6.78;3.38;;;;;;;15.92;100.00;101360.84;5051284;28;20285;-81
2021/08/14 02:08:57;;;;;;;6.30;3.28;;;;;;;15.76;100.00;101369.50;5026008;28;20677;-79
2021/08/14 02:11:34;;;;;;;5.78;3.67;;;;;;;15.49;100.00;101375.50;5056050;28;20713;-79
2021/08/14 02:14:02;;;;;;;6.97;3.10;;;;;;;15.55;100.00;101370.78;5007119;28;20193;-79
2021/08/14 02:16:30;;;;;;;6.00;3.40;;;;;;;15.68;100.00;101353.69;4982188;28;20253;-78
2021/08/14 02:18:59;;;;;;;8.00;3.38;;;;;;;15.47;100.00;101358.50;4992386;28;20180;-79
2021/08/14 02:21:25;;;;;;;6.40;3.05;;;;;;;15.64;100.00;101356.19;5017923;28;20326;-79
2021/08/14 02:23:54;;;;;;;7.20;3.40;;;;;;;15.69;100.00;101355.31;5009398;28;20255;-78
2021/08/14 02:26:19;;;;;;;6.68;3.50;;;;;;;15.70;100.00;101355.03;5028610;28;20324;-78
2021/08/14 02:28:47;;;;;;;5.78;3.35;;;;;;;15.80;100.00;101342.06;5047442;28;20199;-80
2021/08/14 02:31:18;;;;;;;6.15;3.20;;;;;;;15.72;100.00;101346.53;5002646;28;20669;-79
2021/08/14 02:33:43;;;;;;;7.28;3.38;;;;;;;15.69;100.00;101345.16;5018385;28;20220;-79
2021/08/14 02:36:11;;;;;;;6.63;3.50;;;;;;;15.70;100.00;101356.97;5017702;28;20232;-80
2021/08/14 02:38:37;;;;;;;6.07;3.45;;;;;;;15.66;100.00;101355.88;5003723;28;20188;-79
2021/08/14 02:41:03;;;;;;;4.65;2.95;;;;;;;15.73;100.00;101342.66;5051064;28;20748;-80
2021/08/14 02:43:29;;;;;;;6.60;2.47;;;;;;;15.57;100.00;101347.47;5001826;28;20546;-79
2021/08/14 02:45:54;;;;;;;4.25;2.70;;;;;;;15.40;100.00;101351.72;5017401;28;20224;-80
2021/08/14 02:48:20;;;;;;;5.63;2.95;;;;;;;15.41;100.00;101356.09;5001124;28;20176;-78
2021/08/14 02:50:48;;;;;;;7.28;3.00;;;;;;;15.41;100.00;101347.91;5017032;28;20224;-79
2021/08/14 02:53:16;;;;;;;4.10;3.08;;;;;;;15.43;100.00;101349.22;5040827;28;20191;-78
2021/08/14 02:55:42;;;;;;;5.63;2.97;;;;;;;15.36;100.00;101350.66;5026407;28;20286;-78
2021/08/14 02:58:10;;;;;;;4.25;2.90;;;;;;;15.45;100.00;101329.78;5036561;28;20777;-79
2021/08/14 03:00:38;;;;;;;4.93;2.60;;;;;;;15.29;100.00;101335.69;4997620;28;20220;-81
2021/08/14 03:03:08;;;;;;;4.50;2.47;;;;;;;15.31;100.00;101333.47;4998025;28;20263;-79
2021/08/14 03:05:36;;;;;;;4.72;2.60;;;;;;;15.30;100.00;101343.59;5001136;28;20240;-80
2021/08/14 03:08:01;;;;;;;4.43;3.35;;;;;;;15.23;100.00;101337.63;4984723;28;20181;-79
2021/08/14 03:10:27;;;;;;;3.87;2.77;;;;;;;15.31;100.00;101342.53;5016870;28;20228;-77
2021/08/14 03:12:53;;;;;;;5.32;2.83;;;;;;;15.24;100.00;101352.16;5017907;28;20606;-79
2021/08/14 03:15:18;;;;;;;5.97;3.10;;;;;;;15.19;100.00;101350.25;5028300;28;20282;-79
2021/08/14 03:17:48;;;;;;;6.93;3.38;;;;;;;15.38;100.00;101348.47;5038023;28;20180;-79
2021/08/14 03:20:14;;;;;;;6.40;3.28;;;;;;;15.45;100.00;101332.53;5028145;28;20186;-80
2021/08/14 03:22:39;;;;;;;6.18;3.42;;;;;;;15.47;100.00;101341.25;5023297;28;20575;-79
2021/08/14 03:25:07;;;;;;;8.35;3.60;;;;;;;15.54;100.00;101330.81;5034660;28;20183;-80
2021/08/14 03:27:35;;;;;;;7.05;3.38;;;;;;;15.57;100.00;101341.19;5022781;28;20212;-78
2021/08/14 03:30:01;;;;;;;8.02;3.60;;;;;;;15.50;100.00;101343.44;5019339;28;20216;-80
2021/08/14 03:32:29;;;;;;;7.18;3.40;;;;;;;15.47;100.00;101335.78;5055490;28;20799;-80
2021/08/14 03:34:54;;;;;;;6.65;3.40;;;;;;;15.54;100.00;101337.09;5043461;28;20215;-79
2021/08/14 03:37:20;;;;;;;6.13;3.15;;;;;;;15.45;100.00;101348.94;5037971;28;20234;-79
2021/08/14 03:39:48;;;;;;;6.75;3.65;;;;;;;15.49;100.00;101322.63;5049400;28;20176;-79
2021/08/14 03:42:18;;;;;;;5.20;3.28;;;;;;;15.36;100.00;101333.44;5050960;28;20277;-79
2021/08/14 03:44:44;;;;;;;5.75;3.75;;;;;;;15.49;100.00;101336.31;5037489;28;20176;-78
2021/08/14 03:47:09;;;;;;;7.47;3.60;;;;;;;15.64;100.00;101330.69;5036373;28;20252;-77
2021/08/14 03:49:35;;;;;;;7.45;3.70;;;;;;;15.62;100.00;101339.22;5053360;28;20183;-81
2021/08/14 03:52:00;;;;;;;9.90;4.13;;;;;;;15.77;100.00;101342.63;5036245;28;20223;-79
2021/08/14 03:54:26;;;;;;;6.03;3.42;;;;;;;15.73;100.00;101331.69;5029571;28;20206;-77
2021/08/14 03:56:53;;;;;;;5.45;3.50;;;;;;;15.74;100.00;101333.34;5052574;28;20233;-78
2021/08/14 03:59:19;;;;;;;7.13;3.38;;;;;;;15.63;100.00;101329.88;5052402;28;20542;-77
2021/08/14 04:01:45;;;;;;;7.78;3.90;;;;;;;15.50;100.00;101346.19;5051477;28;20273;-78
2021/08/14 04:04:10;;;;;;;5.00;3.22;;;;;;;15.37;100.00;101346.84;5053626;28;20232;-79
2021/08/14 04:06:36;;;;;;;8.85;4.07;;;;;;;15.52;100.00;101338.50;5037249;28;20231;-78
2021/08/14 04:09:04;;;;;;;8.65;3.58;;;;;;;15.46;100.00;101345.13;5038653;28;20199;-79
2021/08/14 04:11:31;;;;;;;6.35;3.45;;;;;;;15.82;100.00;101333.50;5048734;28;20227;-80
2021/08/14 04:13:57;;;;;;;8.73;4.07;;;;;;;15.79;100.00;101332.19;5051992;28;20191;-79
2021/08/14 04:16:25;;;;;;;8.57;3.63;;;;;;;15.77;100.00;101337.13;5036734;28;20232;-78
2021/08/14 04:18:51;;;;;;;7.50;3.90;;;;;;;15.84;100.00;101332.16;5048510;28;20728;-78
2021/08/14 04:21:16;;;;;;;5.63;3.53;;;;;;;15.72;100.00;101316.38;5045630;28;20228;-79
2021/08/14 04:23:44;;;;;;;6.55;3.55;;;;;;;15.70;100.00;101332.31;5038048;28;20195;-78
2021/08/14 04:26:12;;;;;;;7.88;3.83;;;;;;;15.63;100.00;101334.56;5071855;28;20207;-76
2021/08/14 04:28:40;;;;;;;6.93;4.05;;;;;;;15.71;100.00;101328.44;5055167;28;20183;-77
2021/08/14 04:31:05;;;;;;;4.90;3.38;;;;;;;15.74;100.00;101336.91;5040655;28;20293;-78
2021/08/14 04:33:36;;;;;;;6.53;3.58;;;;;;;15.78;100.00;101325.06;5032577;28;20270;-79
2021/08/14 04:36:02;;;;;;;5.68;3.80;;;;;;;15.90;100.00;101324.69;5042239;28;20240;-78
2021/08/14 04:38:30;;;;;;;6.25;3.47;;;;;;;15.74;100.00;101322.38;5054858;28;20202;-78
2021/08/14 04:40:59;;;;;;;5.45;3.30;;;;;;;15.80;100.00;101331.09;5038502;28;20224;-80
2021/08/14 04:43:27;;;;;;;9.52;3.70;;;;;;;15.80;100.00;101331.09;5033625;28;20248;-81
2021/08/14 04:45:55;;;;;;;5.40;3.25;;;;;;;16.06;100.00;101332.44;5071438;28;20770;-81
2021/08/14 04:48:23;;;;;;;5.75;3.58;;;;;;;16.03;100.00;101335.75;5089972;28;20183;-79
2021/08/14 04:50:49;;;;;;;7.63;3.45;;;;;;;16.17;100.00;101336.69;5034100;28;20216;-80
2021/08/14 04:53:14;;;;;;;6.03;3.40;;;;;;;16.18;100.00;101339.16;5036920;28;20196;-80
2021/08/14 04:55:41;;;;;;;6.70;3.95;;;;;;;16.11;100.00;101339.78;5047474;28;20603;-81
2021/08/14 04:58:11;;;;;;;7.38;3.85;;;;;;;16.13;100.00;101340.31;5057622;28;20212;-80
2021/08/14 05:00:37;;;;;;;5.78;3.33;;;;;;;16.00;100.00;101347.28;5035970;28;20225;-79
2021/08/14 05:03:03;;;;;;;7.10;3.67;;;;;;;16.02;100.00;101345.06;5035235;28;20192;-79
2021/08/14 05:05:28;;;;;;;8.43;3.63;;;;;;;16.25;100.00;101334.16;5001896;28;20243;-79
2021/08/14 05:07:56;;;;;;;5.72;3.72;;;;;;;16.20;100.00;101341.63;5035103;28;20183;-79
2021/08/14 05:10:22;;;;;;;6.47;3.60;;;;;;;16.18;100.00;101338.34;5035008;28;20552;-79
2021/08/14 05:12:47;;;;;;;5.70;3.58;;;;;;;16.29;100.00;101339.88;5016740;28;20216;-79
2021/08/14 05:15:13;;;;;;;9.82;3.90;;;;;;;16.46;100.00;101341.00;5018544;28;20211;-79
2021/08/14 05:17:39;;;;;;;5.70;3.30;;;;;;;16.42;100.00;101336.41;5056268;28;20309;-78
2021/08/14 05:20:05;;;;;;;8.20;4.10;;;;;;;16.44;100.00;101336.94;5038235;28;20456;-79
2021/08/14 05:22:31;;;;;;;8.50;4.10;;;;;;;16.47;100.00;101337.16;5019748;28;20196;-80
2021/08/14 05:24:56;;;;;;;8.18;3.90;;;;;;;16.40;100.00;101336.69;5048270;28;20183;-80
2021/08/14 05:27:22;;;;;;;6.10;3.88;;;;;;;16.57;100.00;101342.50;5044570;28;20211;-80
2021/08/14 05:29:50;;;;;;;7.40;4.10;;;;;;;16.69;100.00;101346.47;5022714;28;20184;-80
2021/08/14 05:32:16;;;;;;;6.97;4.07;;;;;;;16.81;100.00;101346.00;5034885;28;20227;-78
2021/08/14 05:34:41;;;;;;;8.75;3.90;;;;;;;16.71;100.00;101343.44;5036568;28;20593;-78
2021/08/14 05:37:07;;;;;;;4.30;3.38;;;;;;;16.60;100.00;101342.75;5028341;28;20228;-79
2021/08/14 05:39:35;;;;;;;5.10;3.40;;;;;;;16.70;100.00;101330.81;5021961;28;20179;-80
2021/08/14 05:42:01;;;;;;;7.80;3.63;;;;;;;16.69;100.00;101330.00;5018232;28;20223;-78
2021/08/14 05:44:29;;;;;;;8.02;3.80;;;;;;;16.60;100.00;101337.25;5035608;28;20232;-80
2021/08/14 05:46:55;;;;;;;6.85;3.83;;;;;;;16.69;100.00;101335.47;5018225;28;20220;-78
2021/08/14 05:49:23;;;;;;;7.40;3.25;;;;;;;16.88;100.00;101338.22;5051610;28;20172;-79
2021/08/14 05:51:48;;;;;;;6.15;3.70;;;;;;;16.93;100.00;101331.56;5023623;28;20227;-78
2021/08/14 05:54:15;;;;;;;5.50;3.97;;;;;;;17.00;100.00;101334.75;5045557;28;20191;-78
2021/08/14 05:56:43;;;;;;;8.02;3.95;;;;;;;17.06;100.00;101330.81;5025715;28;20216;-77
2021/08/14 05:59:09;;;;;;;8.32;4.10;;;;;;;17.10;100.00;101325.53;5017868;28;20677;-80
2021/08/14 06:01:37;;;;;;;9.18;3.90;;;;;;;17.08;100.00;101331.31;5004566;28;20223;-79
2021/08/14 06:04:04;;;;;;;8.75;4.13;;;;;;;17.19;100.00;101330.06;5039073;28;20185;-80
2021/08/14 06:06:30;;;;;;;7.97;3.83;;;;;;;17.22;100.00;101328.69;5043797;28;20230;-79
2021/08/14 06:08:58;;;;;;;7.43;4.30;;;;;;;17.38;100.00;101331.69;5003851;28;20210;-80
2021/08/14 06:11:26;;;;;;;6.15;4.00;;;;;;;17.15;100.00;101322.72;5037334;28;20227;-81
2021/08/14 06:13:54;;;;;;;7.88;3.85;;;;;;;17.41;100.00;101327.50;5033387;28;20193;-80
2021/08/14 06:16:23;;;;;;;8.02;3.70;;;;;;;17.46;100.00;101319.19;4998230;28;20232;-80
2021/08/14 06:18:51;;;;;;;7.30;3.75;;;;;;;17.52;100.00;101321.53;5034163;28;20192;-79
2021/08/14 06:21:18;;;;;;;5.65;3.30;;;;;;;17.58;100.00;101317.59;5018072;28;20228;-79
2021/08/14 06:23:44;;;;;;;6.63;3.65;;;;;;;17.69;100.00;101319.06;5022431;28;20197;-79
2021/08/14 06:26:10;;;;;;;7.35;3.25;;;;;;;17.57;100.00;101321.47;5012996;28;20212;-80
2021/08/14 06:28:40;;;;;;;6.70;3.45;;;;;;;17.78;100.00;101318.06;5019732;28;20570;-80
2021/08/14 06:31:08;;;;;;;7.63;3.70;;;;;;;17.59;100.00;101319.22;5001213;28;20323;-79
2021/08/14 06:33:37;;;;;;;6.60;3.10;;;;;;;17.88;100.00;101322.53;5019273;28;20172;-81
2021/08/14 06:36:05;;;;;;;8.25;3.55;;;;;;;17.97;100.00;101315.22;5005996;28;20238;-79
2021/08/14 06:38:33;;;;;;;6.03;3.50;;;;;;;18.13;100.00;101312.72;5033599;28;20191;-78
2021/08/14 06:40:59;;;;;;;9.50;3.30;;;;;;;18.00;100.00;101317.34;5033952;28;20232;-79
2021/08/14 06:43:24;;;;;;;5.95;3.05;;;;;;;18.12;100.00;101308.31;5069482;28;20194;-80
2021/08/14 06:45:50;;;;;;;8.00;3.35;;;;;;;18.17;100.00;101305.47;5004648;28;20204;-81
2021/08/14 06:48:15;;;;;;;11.68;3.50;;;;;;;18.25;100.00;101310.25;5034420;28;20555;-82
2021/08/14 06:50:41;;;;;;;8.93;3.33;;;;;;;18.26;100.00;101311.06;5035266;28;20229;-79
2021/08/14 06:53:12;;;;;;;7.63;3.67;;;;;;;18.09;100.00;101315.56;5015718;28;20658;-79
2021/08/14 06:55:40;;;;;;;6.80;2.72;;;;;;;18.40;100.00;101304.41;5045130;28;20236;-78
2021/08/14 06:58:08;;;;;;;7.15;3.10;;;;;;;18.51;100.00;101312.19;5029768;28;20850;-78
2021/08/14 07:00:33;;;;;;;6.95;2.95;;;;;;;18.61;100.00;101300.13;5016723;28;20223;-78
2021/08/14 07:02:59;;;;;;;9.93;3.00;;;;;;;18.49;100.00;101319.09;4991903;28;20185;-78
2021/08/14 07:05:30;;;;;;;5.10;2.90;;;;;;;18.48;100.00;101308.38;5054714;28;20299;-80
2021/08/14 07:07:56;;;;;;;8.05;3.33;;;;;;;18.51;100.00;101316.84;5004597;28;20177;-80
2021/08/14 07:10:24;;;;;;;7.15;2.70;;;;;;;18.84;100.00;101321.88;5037247;28;20246;-78
2021/08/14 07:12:51;;;;;;;6.45;2.70;;;;;;;18.68;100.00;101317.00;5052869;28;20216;-79
2021/08/14 07:15:17;;;;;;;7.18;3.10;;;;;;;18.40;100.00;101311.88;5037124;28;20216;-80
2021/08/14 07:17:45;;;;;;;8.50;3.00;;;;;;;18.50;100.00;101315.22;5055341;28;20173;-79
2021/08/14 07:20:14;;;;;;;6.20;3.03;;;;;;;18.54;100.00;101313.47;5036857;28;20176;-79
2021/08/14 07:22:44;;;;;;;8.70;3.03;;;;;;;18.58;100.00;101306.22;5023693;28;20249;-78
2021/08/14 07:25:10;;;;;;;9.38;3.08;;;;;;;18.26;100.00;101313.81;5062390;28;20276;-78
2021/08/14 07:27:38;;;;;;;8.35;3.20;;;;;;;18.36;100.00;101319.09;5021934;28;20227;-79
2021/08/14 07:30:09;;;;;;;7.70;3.13;;;;;;;18.59;100.00;101318.88;5014094;28;20781;-78
2021/08/14 07:32:35;;;;;;;6.68;3.17;;;;;;;18.93;100.00;101326.31;5015440;28;20209;-80
2021/08/14 07:35:00;;;;;;;7.05;2.95;;;;;;;19.08;100.00;101316.91;5033262;28;20227;-80
2021/08/14 07:37:30;;;;;;;8.73;3.30;;;;;;;19.10;100.00;101309.16;5018781;28;20262;-79
2021/08/14 07:39:58;;;;;;;7.20;2.80;;;;;;;19.20;100.00;101319.94;5050425;28;20203;-79
2021/08/14 07:42:31;;;;;;;7.50;2.70;;;;;;;19.32;100.00;101312.72;5004092;28;20220;-80
2021/08/14 07:44:57;;;;;;;7.55;3.20;;;;;;;19.33;100.00;101312.41;5035962;28;20211;-78
2021/08/14 07:47:28;;;;;;;7.75;2.78;;;;;;;19.33;100.00;101297.84;5051715;28;20224;-80
2021/08/14 07:49:56;;;;;;;9.40;3.10;;;;;;;19.36;100.00;101309.03;5036567;28;20253;-82
2021/08/14 07:52:21;;;;;;;6.30;2.70;;;;;;;19.57;100.00;101303.81;5035936;28;20231;-79
2021/08/14 07:54:47;;;;;;;8.15;2.88;;;;;;;19.76;100.00;101302.47;5030178;28;20287;-78
2021/08/14 07:57:15;;;;;;;8.65;3.10;;;;;;;19.85;100.00;101301.44;5031284;28;20215;-77
2021/08/14 07:59:40;;;;;;;8.57;3.25;;;;;;;20.14;100.00;101294.22;5005379;28;20271;-78
2021/08/14 08:02:09;;;;;;;8.45;2.95;;;;;;;20.35;100.00;101305.50;5000829;28;20786;-80
2021/08/14 08:04:39;;;;;;;7.57;2.58;;;;;;;20.34;99.18;101301.13;5026823;28;20181;-79
2021/08/14 08:07:07;;;;;;;9.13;3.17;;;;;;;20.13;100.00;101287.09;5036478;28;20212;-79
2021/08/14 08:09:32;;;;;;;8.90;3.30;;;;;;;20.35;100.00;101300.00;5025580;28;20187;-76
2021/08/14 08:12:00;;;;;;;8.45;3.22;;;;;;;20.69;100.00;101295.38;5032323;28;20223;-79
2021/08/14 08:14:28;;;;;;;7.32;2.67;;;;;;;21.03;98.56;101285.97;5049178;28;20192;-80
2021/08/14 08:16:56;;;;;;;8.77;2.95;;;;;;;20.79;97.37;101282.06;4984077;28;20697;-81
2021/08/14 08:19:21;;;;;;;9.85;3.22;;;;;;;20.73;100.00;101286.13;5034579;28;20180;-81
2021/08/14 08:21:47;;;;;;;8.60;2.97;;;;;;;21.12;99.09;101305.31;5016444;28;20226;-80
2021/08/14 08:24:15;;;;;;;8.65;2.85;;;;;;;21.20;93.99;101291.47;5041859;28;20189;-80
2021/08/14 08:26:45;;;;;;;7.60;2.40;;;;;;;21.25;91.98;101300.41;5025078;28;20242;-81
2021/08/14 08:29:15;;;;;;;7.50;2.35;;;;;;;21.23;95.34;101290.81;5013744;28;20728;-79
2021/08/14 08:31:48;;;;;;;7.57;2.67;;;;;;;21.28;90.69;101291.47;5026145;28;20231;-80
2021/08/14 08:34:14;;;;;;;8.32;2.88;;;;;;;21.64;91.63;101291.91;5017052;28;20180;-81
2021/08/14 08:36:39;;;;;;;8.40;2.55;;;;;;;21.78;88.88;101285.03;5033081;28;20270;-79
2021/08/14 08:39:05;;;;;;;9.15;2.90;;;;;;;21.80;86.16;101287.47;5050792;28;20177;-80
2021/08/14 08:41:33;;;;;;;11.57;3.10;;;;;;;21.74;86.57;101280.50;5001203;28;20231;-81
2021/08/14 08:44:01;;;;;;;9.82;2.70;;;;;;;21.97;87.46;101270.81;5017349;28;20263;-82
2021/08/14 08:46:27;;;;;;;9.13;3.70;;;;;;;22.01;84.47;101278.94;5001701;28;20563;-78
2021/08/14 08:48:53;;;;;;;8.88;3.00;;;;;;;22.23;85.61;101267.59;5021438;28;20188;-79
2021/08/14 08:51:25;;;;;;;7.65;2.88;;;;;;;22.44;83.08;101265.69;5004771;28;20220;-79
2021/08/14 08:53:53;;;;;;;8.98;2.88;;;;;;;22.54;81.73;101256.97;5035037;28;20183;-78
2021/08/14 08:56:18;;;;;;;9.32;3.08;;;;;;;22.70;80.78;101256.03;5028122;28;20229;-81
2021/08/14 08:58:46;;;;;;;9.60;3.03;;;;;;;22.83;78.75;101255.75;4984888;28;20169;-81
2021/08/14 09:01:14;;;;;;;8.65;3.92;;;;;;;22.62;78.24;101254.16;5016829;28;20231;-80
2021/08/14 09:03:40;;;;;;;11.40;3.03;;;;;;;22.55;82.75;101248.34;5038618;28;20658;-80
2021/08/14 09:06:08;;;;;;;8.77;3.90;;;;;;;22.79;79.16;101249.28;5017524;28;20232;-80
2021/08/14 09:08:36;;;;;;;11.05;3.65;;;;;;;22.68;76.63;101258.34;4986128;28;20231;-80
2021/08/14 09:11:17;;;;;;;8.35;3.60;;;;;;;22.77;78.14;101258.28;5032816;28;20228;-77
2021/08/14 09:14:03;;;;;;;8.48;3.38;;;;;;;22.65;78.59;101252.66;5004835;28;20222;-79
2021/08/14 09:16:28;;;;;;;10.30;4.05;;;;;;;22.49;76.05;101255.22;5017490;28;20240;-79
2021/08/14 09:18:58;;;;;;;7.38;3.67;;;;;;;22.65;76.94;101250.69;5006892;28;20181;-79
2021/08/14 09:21:29;;;;;;;8.13;3.47;;;;;;;22.49;78.31;101244.16;5006425;28;20267;-78
2021/08/14 09:23:54;;;;;;;9.32;3.50;;;;;;;22.52;78.84;101249.00;4997239;28;20398;-81
2021/08/14 09:26:24;;;;;;;10.07;4.57;;;;;;;22.61;75.78;101241.44;5022129;28;20215;-78
2021/08/14 09:29:04;;;;;;;8.52;3.92;;;;;;;22.93;75.14;101236.00;5019268;28;20185;-79
2021/08/14 09:31:48;;;;;;;8.68;3.90;;;;;;;22.94;74.78;101240.38;5007591;28;20298;-77
2021/08/14 09:34:20;;;;;;;9.85;3.78;;;;;;;22.91;74.96;101230.00;5018438;28;20646;-79
2021/08/14 09:37:07;;;;;;;8.55;3.65;;;;;;;23.08;74.10;101234.56;5035195;28;20238;-80
2021/08/14 09:39:47;;;;;;;8.27;3.97;;;;;;;23.31;72.98;101225.50;4986582;28;20188;-76
2021/08/14 09:42:13;;;;;;;7.88;3.90;;;;;;;23.54;71.86;101215.63;5014358;28;20248;-78
2021/08/14 09:44:39;;;;;;;10.27;3.70;;;;;;;23.84;73.56;101227.00;5016687;28;21106;-77
2021/08/14 09:47:11;;;;;;;6.82;3.28;;;;;;;24.25;68.94;101229.53;5008374;28;20256;-81
2021/08/14 09:49:54;;;;;;;9.57;3.58;;;;;;;24.22;68.44;101230.25;5042344;28;20210;-80
2021/08/14 09:52:26;;;;;;;6.85;3.70;;;;;;;24.02;68.33;101217.31;5002527;28;20713;-77
2021/08/14 09:54:57;;;;;;;9.48;3.80;;;;;;;23.85;68.75;101222.28;5051585;28;20223;-78
2021/08/14 09:57:23;;;;;;;7.28;3.38;;;;;;;24.07;66.90;101222.63;5018834;28;20304;-78
2021/08/14 09:59:51;;;;;;;6.70;3.40;;;;;;;24.00;67.86;101225.16;5020707;28;20633;-77
2021/08/14 10:02:27;;;;;;;8.05;3.30;;;;;;;24.14;68.63;101217.31;5012486;28;20273;-79
2021/08/14 10:04:56;;;;;;;6.72;3.15;;;;;;;24.26;64.50;101211.75;5004149;28;20179;-80
2021/08/14 10:07:24;;;;;;;7.68;3.47;;;;;;;24.45;65.99;101210.81;5047322;28;20227;-74
2021/08/14 10:09:50;;;;;;;6.88;3.53;;;;;;;24.67;65.39;101210.31;5019114;28;20193;-79
2021/08/14 10:12:17;;;;;;;6.35;3.92;;;;;;;24.43;67.02;101206.75;5028753;28;20232;-76
2021/08/14 10:14:49;;;;;;;9.63;3.95;;;;;;;24.28;66.66;101198.34;5019084;28;20583;-76
2021/08/14 10:17:20;;;;;;;6.15;3.70;;;;;;;24.15;67.06;101203.06;4997335;28;20694;-80
2021/08/14 10:19:48;;;;;;;6.07;3.08;;;;;;;23.99;64.33;101195.78;5052447;28;20188;-80
2021/08/14 10:22:19;;;;;;;6.60;3.20;;;;;;;24.20;63.67;101196.47;5020212;28;20219;-81
2021/08/14 10:24:45;;;;;;;6.78;2.90;;;;;;;24.51;63.69;101187.16;5018142;28;20202;-79
2021/08/14 10:27:13;;;;;;;6.10;3.00;;;;;;;24.29;60.77;101195.22;5017950;28;20220;-78
2021/08/14 10:29:49;;;;;;;6.22;3.08;;;;;;;23.96;62.33;101188.16;4999406;28;20664;-77
2021/08/14 10:32:29;;;;;;;5.93;3.00;;;;;;;24.09;64.57;101173.09;5012249;28;20234;-74
2021/08/14 10:35:14;;;;;;;6.20;3.30;;;;;;;24.56;62.95;101184.16;5017385;28;20213;-79
2021/08/14 10:37:42;;;;;;;7.20;3.42;;;;;;;24.24;62.72;101186.28;5063052;28;20220;-78
2021/08/14 10:40:08;;;;;;;7.40;3.42;;;;;;;24.44;65.00;101181.41;5018867;28;20168;-75
2021/08/14 10:42:59;;;;;;;7.75;2.97;;;;;;;24.49;62.07;101183.13;5070149;28;20277;-80
2021/08/14 10:45:36;;;;;;;6.75;3.15;;;;;;;24.49;62.29;101180.34;5041845;28;20184;-80
2021/08/14 10:48:06;;;;;;;7.55;2.78;;;;;;;24.82;58.26;101181.75;5045647;28;20188;-77
2021/08/14 10:50:32;;;;;;;5.22;2.72;;;;;;;24.63;59.63;101187.13;5035264;28;20219;-77
2021/08/14 10:53:13;;;;;;;6.95;2.80;;;;;;;24.82;58.75;101181.75;5039905;28;20603;-75
2021/08/14 10:55:50;;;;;;;8.60;3.30;;;;;;;25.49;58.14;101179.66;5043467;28;20234;-78
2021/08/14 10:58:24;;;;;;;10.23;3.42;;;;;;;25.14;58.86;101171.16;5046370;28;20603;-79
2021/08/14 11:01:11;;;;;;;5.68;3.00;;;;;;;25.53;57.21;101167.47;5037485;28;20215;-79
2021/08/14 11:03:40;;;;;;;5.38;2.88;;;;;;;25.57;56.38;101158.03;5059432;28;20195;-77
2021/08/14 11:06:27;;;;;;;5.53;2.92;;;;;;;25.38;57.15;101162.69;5024903;28;20216;-79
2021/08/14 11:09:11;;;;;;;6.22;3.17;;;;;;;25.12;59.18;101163.56;5039576;28;20172;-77
2021/08/14 11:11:37;;;;;;;6.28;3.20;;;;;;;25.20;57.06;101157.81;5022914;28;20292;-78
2021/08/14 11:14:12;;;;;;;6.70;2.83;;;;;;;25.33;56.02;101164.91;5024565;28;20236;-77
2021/08/14 11:16:55;;;;;;;6.05;2.60;;;;;;;25.60;53.40;101159.31;5040132;28;20231;-80
2021/08/14 11:19:42;;;;;;;6.60;3.00;;;;;;;25.78;51.60;101146.63;5041513;28;20183;-78
2021/08/14 11:22:43;;;;;;;5.57;3.10;;;;;;;25.33;53.15;101142.66;5057883;28;20223;-75
2021/08/14 11:25:41;;;;;;;5.85;2.70;;;;;;;25.74;55.39;101137.41;5031519;28;20188;-78